createdAt,value
2019-04-22T00:02:40.101Z,14.37
2019-04-22T00:05:15.598Z,14.07
2019-04-22T00:08:01.655Z,13.90
2019-04-22T00:10:45.329Z,14.00
2019-04-22T00:13:06.729Z,14.80
2019-04-22T00:15:37.112Z,13.43
2019-04-22T00:18:16.566Z,15.20
2019-04-22T00:20:50.426Z,16.00
2019-04-22T00:23:20.348Z,15.73
2019-04-22T00:25:57.328Z,16.37
2019-04-22T00:28:21.678Z,17.10
2019-04-22T00:31:02.837Z,16.57
2019-04-22T00:33:34.301Z,17.27
2019-04-22T00:36:14.968Z,17.40
2019-04-22T00:38:44.431Z,17.47
2019-04-22T00:41:16.679Z,18.53
2019-04-22T00:43:48.067Z,19.47
2019-04-22T00:46:19.589Z,19.87
2019-04-22T00:49:06.441Z,19.93
2019-04-22T00:51:47.416Z,19.67
2019-04-22T00:53:57.861Z,21.23
2019-04-22T00:56:24.666Z,21.80
2019-04-22T00:59:01.626Z,20.30
2019-04-22T01:01:31.952Z,22.10
2019-04-22T01:06:36.475Z,21.23
2019-04-22T01:09:11.241Z,21.30
2019-04-22T01:11:37.377Z,23.83
2019-04-22T01:14:19.709Z,21.83
2019-04-22T01:16:52.107Z,22.73
2019-04-22T01:19:27.630Z,22.33
2019-04-22T01:21:52.798Z,22.33
2019-04-22T01:24:22.102Z,23.10
2019-04-22T01:26:56.273Z,22.63
2019-04-22T01:29:22.576Z,22.23
2019-04-22T01:31:43.838Z,23.63
2019-04-22T01:34:28.888Z,21.23
2019-04-22T01:37:03.519Z,22.50
2019-04-22T01:39:45.522Z,22.03
2019-04-22T01:42:37.661Z,22.07
2019-04-22T01:45:07.249Z,22.90
2019-04-22T01:47:24.824Z,22.03
2019-04-22T01:49:55.994Z,23.43
2019-04-22T02:11:24.090Z,24.10
2019-04-22T02:13:49.809Z,25.27
2019-04-22T02:16:23.112Z,24.63
2019-04-22T02:18:53.095Z,24.97
2019-04-22T02:21:21.550Z,24.27
2019-04-22T02:24:00.627Z,24.83
2019-04-22T02:26:31.292Z,25.47
2019-04-22T02:29:01.999Z,25.10
2019-04-22T02:31:44.172Z,24.37
2019-04-22T02:34:14.100Z,24.40
2019-04-22T02:36:43.262Z,23.90
2019-04-22T02:44:26.311Z,24.03
2019-04-22T02:49:39.735Z,24.87
2019-04-22T02:51:53.955Z,25.53
2019-04-22T02:54:43.535Z,26.67
2019-04-22T02:57:19.375Z,26.20
2019-04-22T03:02:12.206Z,26.83
2019-04-22T03:04:37.402Z,26.13
2019-04-22T03:07:12.720Z,27.43
2019-04-22T03:09:47.697Z,26.23
2019-04-22T03:12:29.242Z,26.30
2019-04-22T03:20:01.902Z,27.07
2019-04-22T03:25:33.288Z,27.70
2019-04-22T03:30:45.262Z,28.67
2019-04-22T03:37:56.115Z,29.17
2019-04-22T03:42:59.690Z,29.30
2019-04-22T03:47:57.570Z,30.40
2019-04-22T03:53:09.793Z,29.30
2019-04-22T03:55:39.120Z,31.63
2019-04-22T03:57:59.686Z,32.67
2019-04-22T04:00:55.311Z,31.03
2019-04-22T04:03:11.998Z,30.30
2019-04-22T04:08:35.658Z,32.93
2019-04-22T04:10:53.507Z,32.17
2019-04-22T04:13:28.507Z,33.97
2019-04-22T04:15:55.644Z,33.67
2019-04-22T04:18:39.239Z,36.00
2019-04-22T04:26:42.407Z,36.43
2019-04-22T04:28:50.323Z,34.27
2019-04-22T04:34:04.085Z,36.03
2019-04-22T04:36:16.542Z,36.70
2019-04-22T04:38:58.434Z,39.33
2019-04-22T04:41:42.133Z,41.83
2019-04-22T04:44:01.819Z,39.53
2019-04-22T04:54:21.428Z,39.77
2019-04-22T04:56:40.596Z,39.37
2019-04-22T05:00:09.923Z,41.00
2019-04-22T05:07:09.297Z,40.17
2019-04-22T05:09:22.093Z,40.63
2019-04-22T05:14:24.745Z,42.17
2019-04-22T05:19:33.382Z,42.17
2019-04-22T05:22:14.821Z,41.57
2019-04-22T05:27:16.356Z,41.10
2019-04-22T05:29:46.510Z,42.77
2019-04-22T05:32:14.087Z,42.07
2019-04-22T05:37:20.692Z,43.33
2019-04-22T05:39:49.635Z,43.47
2019-04-22T05:42:17.913Z,42.57
2019-04-22T05:44:55.183Z,41.90
2019-04-22T05:47:26.102Z,42.90
2019-04-22T05:49:54.696Z,41.33
2019-04-22T05:52:36.020Z,42.73
2019-04-22T05:55:08.208Z,41.30
2019-04-22T05:57:37.239Z,39.30
2019-04-22T06:00:18.255Z,42.57
2019-04-22T06:05:17.546Z,41.80
2019-04-22T06:07:55.124Z,43.10
2019-04-22T06:10:37.593Z,42.07
2019-04-22T06:12:57.765Z,43.37
2019-04-22T06:15:32.822Z,41.07
2019-04-22T06:18:09.474Z,42.30
2019-04-22T06:20:53.925Z,41.77
2019-04-22T06:28:40.697Z,41.57
2019-04-22T06:31:13.925Z,39.57
2019-04-22T06:33:56.746Z,39.33
2019-04-22T06:36:37.521Z,40.20
2019-04-22T06:39:10.311Z,37.33
2019-04-22T06:42:07.934Z,38.20
2019-04-22T06:44:43.095Z,36.37
2019-04-22T06:47:22.287Z,36.80
2019-04-22T06:49:53.059Z,34.67
2019-04-22T06:52:18.322Z,34.43
2019-04-22T06:54:54.797Z,32.30
2019-04-22T06:57:25.571Z,33.43
2019-04-22T07:00:08.309Z,31.73
2019-04-22T07:02:45.220Z,30.30
2019-04-22T07:05:08.290Z,30.20
2019-04-22T07:07:40.317Z,29.17
2019-04-22T07:10:23.619Z,27.93
2019-04-22T07:12:47.223Z,27.90
2019-04-22T07:15:40.012Z,28.20
2019-04-22T07:20:23.790Z,26.50
2019-04-22T07:22:59.438Z,26.93
2019-04-22T07:25:32.783Z,26.00
2019-04-22T07:28:01.041Z,25.40
2019-04-22T07:30:35.040Z,25.53
2019-04-22T07:35:47.574Z,24.30
2019-04-22T07:38:22.279Z,24.37
2019-04-22T07:40:51.999Z,24.83
2019-04-22T07:43:32.476Z,22.93
2019-04-22T07:45:48.909Z,23.10
2019-04-22T07:48:33.244Z,23.37
2019-04-22T07:53:29.010Z,22.83
2019-04-22T07:56:01.916Z,22.63
2019-04-22T07:58:36.098Z,21.63
2019-04-22T08:01:12.363Z,21.97
2019-04-22T08:03:53.290Z,22.57
2019-04-22T08:08:45.574Z,21.53
2019-04-22T08:11:31.077Z,21.30
2019-04-22T08:13:46.997Z,20.73
2019-04-22T08:16:23.589Z,21.87
2019-04-22T08:19:03.146Z,21.30
2019-04-22T08:21:25.207Z,20.77
2019-04-22T08:24:01.164Z,20.80
2019-04-22T08:26:32.113Z,21.93
2019-04-22T08:29:08.133Z,20.97
2019-04-22T08:31:40.074Z,20.53
2019-04-22T08:34:14.295Z,21.43
2019-04-22T08:36:54.047Z,21.33
2019-04-22T08:39:19.509Z,21.60
2019-04-22T08:41:39.801Z,20.93
2019-04-22T08:44:37.735Z,20.93
2019-04-22T08:46:57.859Z,21.87
2019-04-22T08:49:30.682Z,20.33
2019-04-22T08:52:03.896Z,19.70
2019-04-22T08:54:29.741Z,18.90
2019-04-22T08:57:12.513Z,19.27
2019-04-22T08:59:36.939Z,17.70
2019-04-22T09:02:16.332Z,17.63
2019-04-22T09:04:45.054Z,17.20
2019-04-22T09:10:01.959Z,15.90
2019-04-22T09:12:23.812Z,16.57
2019-04-22T09:15:06.281Z,17.13
2019-04-22T09:17:41.435Z,17.00
2019-04-22T09:20:00.388Z,17.53
2019-04-22T09:22:26.635Z,17.20
2019-04-22T09:25:03.711Z,16.07
2019-04-22T09:27:41.245Z,16.83
2019-04-22T09:30:16.913Z,16.60
2019-04-22T09:32:52.378Z,17.00
2019-04-22T09:35:21.478Z,16.83
2019-04-22T09:37:57.273Z,15.67
2019-04-22T09:40:35.184Z,16.30
2019-04-22T09:42:56.061Z,15.73
2019-04-22T09:45:31.963Z,14.93
2019-04-22T09:48:08.656Z,15.20
2019-04-22T09:53:51.509Z,15.47
2019-04-22T09:56:18.094Z,15.53
2019-04-22T09:58:55.667Z,14.80
2019-04-22T10:01:59.441Z,14.80
2019-04-22T10:04:07.160Z,14.90
2019-04-22T10:06:54.667Z,12.63
2019-04-22T10:09:56.159Z,13.73
2019-04-22T10:12:02.614Z,14.27
2019-04-22T10:14:54.210Z,12.90
2019-04-22T10:17:26.162Z,12.93
2019-04-22T10:20:04.080Z,12.80
2019-04-22T10:22:39.483Z,12.00
2019-04-22T10:25:21.440Z,12.40
2019-04-22T10:27:59.950Z,11.23
2019-04-22T10:30:39.071Z,10.53
2019-04-22T10:33:08.810Z,10.20
2019-04-22T10:35:20.958Z,9.50
2019-04-22T10:38:24.532Z,8.80
2019-04-22T10:41:02.403Z,9.13
2019-04-22T10:43:36.981Z,8.63
2019-04-22T10:46:10.525Z,8.60
2019-04-22T10:52:27.619Z,9.07
2019-04-22T10:55:09.552Z,8.30
2019-04-22T10:58:49.040Z,7.13
2019-04-22T11:04:32.236Z,6.40
2019-04-22T11:07:10.499Z,6.87
2019-04-22T11:09:57.144Z,7.10
2019-04-22T11:12:26.552Z,6.63
2019-04-22T11:14:55.867Z,6.67
2019-04-22T11:17:26.910Z,6.60
2019-04-22T11:19:59.537Z,7.57
2019-04-22T11:22:36.838Z,6.97
2019-04-22T11:25:07.679Z,7.00
2019-04-22T11:27:39.035Z,7.07
2019-04-22T11:30:11.145Z,6.70
2019-04-22T11:32:44.837Z,6.53
2019-04-22T11:35:16.755Z,7.13
2019-04-22T11:37:48.661Z,7.37
2019-04-22T11:40:28.748Z,6.87
2019-04-22T11:43:17.310Z,7.23
2019-04-22T11:45:29.136Z,6.97
2019-04-22T11:48:03.653Z,7.50
2019-04-22T11:50:35.748Z,6.80
2019-04-22T11:53:16.709Z,7.33
2019-04-22T11:55:55.084Z,7.63
2019-04-22T11:58:30.656Z,7.53
2019-04-22T12:01:06.509Z,6.60
2019-04-22T12:03:49.284Z,7.13
2019-04-22T12:06:22.146Z,7.53
2019-04-22T12:08:55.394Z,7.70
2019-04-22T12:11:40.864Z,7.67
2019-04-22T12:14:50.425Z,7.07
2019-04-22T12:17:26.518Z,7.60
2019-04-22T12:20:08.339Z,8.13
2019-04-22T12:22:38.990Z,7.57
2019-04-22T12:25:32.358Z,7.13
2019-04-22T12:27:57.032Z,8.40
2019-04-22T12:30:34.999Z,7.97
2019-04-22T12:33:11.035Z,7.50
2019-04-22T12:35:46.876Z,7.53
2019-04-22T12:38:18.953Z,7.43
2019-04-22T12:40:56.419Z,7.70
2019-04-22T12:43:26.493Z,7.50
2019-04-22T12:46:32.398Z,6.93
2019-04-22T12:49:04.512Z,8.23
2019-04-22T12:51:38.758Z,6.90
2019-04-22T12:54:10.993Z,7.33
2019-04-22T12:57:10.320Z,7.07
2019-04-22T12:59:45.640Z,7.10
2019-04-22T13:02:18.777Z,7.27
2019-04-22T13:04:58.197Z,7.80
2019-04-22T13:07:31.874Z,7.27
2019-04-22T13:10:05.962Z,7.40
2019-04-22T13:12:40.372Z,7.20
2019-04-22T13:15:14.135Z,6.60
2019-04-22T13:18:01.057Z,7.03
2019-04-22T13:20:26.209Z,7.83
2019-04-22T13:23:07.572Z,7.63
2019-04-22T13:25:47.349Z,8.50
2019-04-22T13:28:40.955Z,8.30
2019-04-22T13:31:22.908Z,7.20
2019-04-22T13:34:09.575Z,7.80
2019-04-22T13:36:32.319Z,7.87
2019-04-22T13:39:04.859Z,8.07
2019-04-22T13:41:44.270Z,7.60
2019-04-22T13:44:12.792Z,8.17
2019-04-22T13:47:02.084Z,8.63
2019-04-22T13:49:56.596Z,8.20
2019-04-22T13:52:20.704Z,8.00
2019-04-22T13:57:20.116Z,7.37
2019-04-22T13:59:43.019Z,10.63
2019-04-22T14:02:40.245Z,7.90
2019-04-22T14:05:15.238Z,7.43
2019-04-22T14:07:54.849Z,6.90
2019-04-22T14:10:26.990Z,6.73
2019-04-22T14:13:03.884Z,6.73
2019-04-22T14:15:40.248Z,7.47
2019-04-22T14:18:19.082Z,6.43
2019-04-22T14:20:51.115Z,8.93
2019-04-22T14:23:32.984Z,7.10
2019-04-22T14:26:07.215Z,5.87
2019-04-22T14:28:39.518Z,5.73
2019-04-22T14:31:20.400Z,5.93
2019-04-22T14:33:55.814Z,6.03
2019-04-22T14:36:33.367Z,6.10
2019-04-22T14:39:06.175Z,5.67
2019-04-22T14:41:55.116Z,6.27
2019-04-22T14:47:09.325Z,5.93
2019-04-22T14:49:54.332Z,5.50
2019-04-22T14:52:27.771Z,6.70
2019-04-22T14:54:51.987Z,7.13
2019-04-22T14:57:37.485Z,7.90
2019-04-22T15:02:37.539Z,9.43
2019-04-22T15:03:36.593Z,13.07
2019-04-22T15:09:52.113Z,6.17
2019-04-22T15:14:17.277Z,14.53
2019-04-22T15:16:02.701Z,8.90
2019-04-22T15:20:21.608Z,8.13
2019-04-22T15:21:58.732Z,11.50
2019-04-22T15:24:54.539Z,6.57
2019-04-22T15:28:33.405Z,5.90
2019-04-22T15:31:35.370Z,8.57
2019-04-22T15:34:16.378Z,6.47
2019-04-22T15:36:56.048Z,8.17
2019-04-22T15:39:29.211Z,7.30
2019-04-22T15:42:20.926Z,6.37
2019-04-22T15:44:53.903Z,6.30
2019-04-22T15:47:37.751Z,6.30
2019-04-22T15:50:10.108Z,6.37
2019-04-22T15:52:49.110Z,6.60
2019-04-22T15:55:14.615Z,6.10
2019-04-22T15:57:45.824Z,6.13
2019-04-22T16:00:29.336Z,6.37
2019-04-22T16:02:49.894Z,6.57
2019-04-22T16:05:20.833Z,7.57
2019-04-22T16:07:53.033Z,9.57
2019-04-22T16:10:24.142Z,8.40
2019-04-22T16:13:07.326Z,5.70
2019-04-22T16:15:31.739Z,5.57
2019-04-22T16:18:04.726Z,6.93
2019-04-22T16:20:36.337Z,6.47
2019-04-22T16:23:29.770Z,5.30
2019-04-22T16:26:07.546Z,4.90
2019-04-22T16:28:39.761Z,5.57
2019-04-22T16:31:11.274Z,5.00
2019-04-22T16:33:47.691Z,5.10
2019-04-22T16:36:16.941Z,5.00
2019-04-22T16:38:49.020Z,4.70
2019-04-22T16:41:21.164Z,4.93
2019-04-22T16:43:52.558Z,4.80
2019-04-22T16:46:23.593Z,4.50
2019-04-22T16:48:55.840Z,4.20
2019-04-22T16:51:27.647Z,4.77
2019-04-22T16:54:36.891Z,4.50
2019-04-22T16:57:08.132Z,4.27
2019-04-22T16:59:40.350Z,4.40
2019-04-22T17:02:41.720Z,4.67
2019-04-22T17:05:31.504Z,4.30
2019-04-22T17:08:02.512Z,4.57
2019-04-22T17:10:33.993Z,4.20
2019-04-22T17:13:10.996Z,4.37
2019-04-22T17:15:37.616Z,3.90
2019-04-22T17:18:09.581Z,4.13
2019-04-22T17:20:42.566Z,4.33
2019-04-22T17:23:13.980Z,3.70
2019-04-22T17:25:44.911Z,4.27
2019-04-22T17:28:15.725Z,3.60
2019-04-22T17:30:47.813Z,3.90
2019-04-22T17:33:18.916Z,4.00
2019-04-22T17:35:51.012Z,3.80
2019-04-22T17:38:31.043Z,3.50
2019-04-22T17:41:07.722Z,3.40
2019-04-22T17:43:54.236Z,3.50
2019-04-22T17:46:29.196Z,3.50
2019-04-22T17:49:10.457Z,3.17
2019-04-22T17:52:04.539Z,3.53
2019-04-22T17:54:40.686Z,3.10
2019-04-22T17:57:09.496Z,3.17
2019-04-22T17:59:44.204Z,3.23
2019-04-22T18:02:11.545Z,3.00
2019-04-22T18:04:33.745Z,2.97
2019-04-22T18:07:26.961Z,3.00
2019-04-22T18:10:16.495Z,2.90
2019-04-22T18:12:33.505Z,3.10
2019-04-22T18:15:16.305Z,3.30
2019-04-22T18:17:35.426Z,3.20
2019-04-22T18:20:02.665Z,2.93
2019-04-22T18:22:29.417Z,3.47
2019-04-22T18:25:02.179Z,2.90
2019-04-22T18:30:18.028Z,2.80
2019-04-22T18:32:55.629Z,2.90
2019-04-22T18:35:26.497Z,2.83
2019-04-22T18:38:11.296Z,2.80
2019-04-22T18:40:37.283Z,2.80
2019-04-22T18:43:17.104Z,2.80
2019-04-22T18:45:57.524Z,2.80
2019-04-22T18:48:12.718Z,2.57
2019-04-22T18:51:06.482Z,2.63
2019-04-22T18:53:54.070Z,2.53
2019-04-22T18:57:15.600Z,2.50
2019-04-22T18:59:39.159Z,2.20
2019-04-22T19:03:00.708Z,2.50
2019-04-22T19:05:26.478Z,2.30
2019-04-22T19:08:13.730Z,2.67
2019-04-22T19:16:09.746Z,2.10
2019-04-22T19:21:12.168Z,2.40
2019-04-22T19:23:44.999Z,2.50
2019-04-22T19:26:35.769Z,2.40
2019-04-22T19:29:03.918Z,2.13
2019-04-22T19:31:43.937Z,2.43
2019-04-22T19:34:30.831Z,2.23
2019-04-22T19:37:18.042Z,2.00
2019-04-22T19:40:09.571Z,2.47
2019-04-22T19:42:43.181Z,2.00
2019-04-22T19:45:17.529Z,2.30
2019-04-22T19:47:59.877Z,2.20
2019-04-22T19:50:46.885Z,2.37
2019-04-22T19:53:27.736Z,2.40
2019-04-22T19:55:52.305Z,2.33
2019-04-22T19:58:53.151Z,2.70
2019-04-22T20:02:00.929Z,2.47
2019-04-22T20:04:52.769Z,2.80
2019-04-22T20:07:15.383Z,2.70
2019-04-22T20:10:00.069Z,2.80
2019-04-22T20:12:30.594Z,3.07
2019-04-22T20:15:07.973Z,3.10
2019-04-22T20:17:44.087Z,3.40
2019-04-22T20:20:31.468Z,3.43
2019-04-22T20:22:57.505Z,3.63
2019-04-22T20:25:34.775Z,3.80
2019-04-22T20:28:13.198Z,4.17
2019-04-22T20:30:47.865Z,3.93
2019-04-22T20:33:29.471Z,4.13
2019-04-22T20:42:45.425Z,3.90
2019-04-22T20:45:13.084Z,4.50
2019-04-22T20:47:45.480Z,4.60
2019-04-22T20:50:29.633Z,4.20
2019-04-22T20:53:06.827Z,4.37
2019-04-22T20:55:30.902Z,4.33
2019-04-22T20:58:12.238Z,4.30
2019-04-22T21:00:36.207Z,3.90
2019-04-22T21:03:07.322Z,3.63
2019-04-22T21:05:47.132Z,5.00
2019-04-22T21:08:33.437Z,4.23
2019-04-22T21:10:52.957Z,4.30
2019-04-22T21:13:30.547Z,4.00
2019-04-22T21:16:18.394Z,3.93
2019-04-22T21:18:44.648Z,4.10
2019-04-22T21:21:36.279Z,3.80
2019-04-22T21:23:54.213Z,4.23
2019-04-22T21:26:33.586Z,3.40
2019-04-22T21:29:03.305Z,3.67
2019-04-22T21:31:39.934Z,3.47
2019-04-22T21:34:15.327Z,3.33
2019-04-22T21:36:48.854Z,3.70
2019-04-22T21:39:15.571Z,3.17
2019-04-22T21:41:47.563Z,3.27
2019-04-22T21:44:18.391Z,3.43
2019-04-22T21:47:03.370Z,2.90
2019-04-22T21:49:29.626Z,3.20
2019-04-22T21:52:00.187Z,3.40
2019-04-22T21:54:36.603Z,2.60
2019-04-22T21:57:24.190Z,3.37
2019-04-22T21:59:57.935Z,3.10
2019-04-22T22:02:28.475Z,3.00
2019-04-22T22:04:58.702Z,2.90
2019-04-22T22:07:18.119Z,2.97
2019-04-22T22:10:04.191Z,3.20
2019-04-22T22:12:43.576Z,3.07
2019-04-22T22:15:13.104Z,3.00
2019-04-22T22:17:51.532Z,3.10
2019-04-22T22:20:24.219Z,3.40
2019-04-22T22:23:09.098Z,3.23
2019-04-22T22:25:35.011Z,2.70
2019-04-22T22:28:17.088Z,2.80
2019-04-22T22:30:58.346Z,2.90
2019-04-22T22:33:17.371Z,3.10
2019-04-22T22:35:45.762Z,3.07
2019-04-22T22:38:23.039Z,2.40
2019-04-22T22:40:43.912Z,3.10
2019-04-22T22:43:29.953Z,2.83
2019-04-22T22:46:05.915Z,2.57
2019-04-22T22:48:51.415Z,2.73
2019-04-22T22:51:30.695Z,2.60
2019-04-22T22:53:58.138Z,2.50
2019-04-22T22:56:38.982Z,2.20
2019-04-22T22:59:03.476Z,2.90
2019-04-22T23:01:58.560Z,2.77
2019-04-22T23:04:43.054Z,2.70
2019-04-22T23:07:17.899Z,3.57
2019-04-22T23:09:47.206Z,2.67
2019-04-22T23:12:31.268Z,2.50
2019-04-22T23:14:49.557Z,2.60
2019-04-22T23:17:07.892Z,2.70
2019-04-22T23:19:42.006Z,2.83
2019-04-22T23:22:20.493Z,2.53
2019-04-22T23:25:14.330Z,2.33
2019-04-22T23:27:54.009Z,2.23
2019-04-22T23:30:38.321Z,2.90
2019-04-22T23:33:22.991Z,2.43
2019-04-22T23:35:51.878Z,2.63
2019-04-22T23:38:31.900Z,2.87
2019-04-22T23:41:05.696Z,2.67
2019-04-22T23:43:53.781Z,2.37
2019-04-22T23:46:13.189Z,2.60
2019-04-22T23:48:39.123Z,2.63
2019-04-22T23:51:19.329Z,2.90
2019-04-22T23:56:26.633Z,2.33
2019-04-22T23:59:02.966Z,2.60
